Weather History for Crane Lake, MN

Change the Weather History Date:

Friday, November 23, 2012

  Actual Average Record
Temperature  
Mean Temperature 16 °F -  
Max Temperature 21 °F 29 °F 46 °F (2011)
Min Temperature 10 °F 16 °F -9 °F (1997)
Degree Days  
Heating Degree Days 50    
Moisture  
Dew Point 14 °F    
Average Humidity 90    
Maximum Humidity 100    
Minimum Humidity 79    
Precipitation  
Precipitation 0.01 in - - ()
Sea Level Pressure  
Sea Level Pressure 30.20 in    
Wind  
Wind Speed 11 mph (NNW)    
Max Wind Speed 17 mph    
Max Gust Speed 29 mph    
Visibility 7 miles    
Events Snow    
Averages and records for this station are not official NWS values.
T = Trace of Precipitation, MM = Missing Value Source: NWS Daily Summary

Daily Weather History Graph

Daily Weather History Graph

Search for Another Location

Airport:

Trip Planner

Search our weather history database for the weather conditions in past years. The results will help you decide how hot, cold, wet, or windy it might be!

Date:

Astronomy

Nov. 23, 2012 Rise Set
Actual Time 7:29 AM CST 4:22 PM CST
Civil Twilight 6:54 AM CST 4:57 PM CST
Nautical Twilight 6:16 AM CST 5:36 PM CST
Astronomical Twilight 5:38 AM CST 6:13 PM CST
Moon 1:54 PM CST (11/23) 2:30 AM CST (11/23)
Length of Visible Light 10h 03m
Length of Day
8h 53m
Waxing Gibbous, 80% of the Moon is Illuminated
Nov 23
Waxing Gibbous
Nov 28
Full
Dec 6
Last Quarter
Dec 13
New
Dec 19
First Quarter

Hourly Weather History & Observations

Time (CST) Temp. Windchill Dew Point Humidity Pressure Visibility Wind Dir Wind Speed Gust Speed Precip Events Conditions
12:06 AM 21.2 °F 7.8 °F 19.4 °F 93% 29.87 in 0.5 mi NNW 15.0 mph 23.0 mph N/A Snow Light Snow
12:26 AM 19.4 °F 7.9 °F 19.4 °F 100% 29.88 in 0.5 mi North 10.4 mph 27.6 mph N/A Snow Light Snow
12:46 AM 19.4 °F 7.9 °F 19.4 °F 100% 29.90 in 0.8 mi NNW 10.4 mph 19.6 mph N/A Snow Light Snow
1:26 AM 19.4 °F 6.6 °F 17.6 °F 93% 29.92 in 0.5 mi NNW 12.7 mph 21.9 mph 0.01 in Snow Light Snow
1:46 AM 19.4 °F 7.2 °F 17.6 °F 93% 29.94 in 4.0 mi NNW 11.5 mph 20.7 mph 0.01 in Snow Light Snow
2:06 AM 19.4 °F 6.0 °F 17.6 °F 93% 29.96 in 5.0 mi NNW 13.8 mph 26.5 mph N/A Snow Light Snow
2:26 AM 19.4 °F 6.0 °F 17.6 °F 93% 29.97 in 5.0 mi NNW 13.8 mph 25.3 mph N/A Snow Light Snow
2:46 AM 19.4 °F 8.6 °F 17.6 °F 93% 29.99 in 5.0 mi North 9.2 mph 23.0 mph N/A Snow Light Snow
3:06 AM 19.4 °F 6.6 °F 17.6 °F 93% 30.00 in 10.0 mi NNW 12.7 mph 27.6 mph N/A Snow Light Snow
3:26 AM 19.4 °F 5.5 °F 17.6 °F 93% 30.01 in 10.0 mi NNW 15.0 mph 28.8 mph N/A Snow Light Snow
3:46 AM 19.4 °F 7.2 °F 17.6 °F 93% 30.03 in 7.0 mi NNW 11.5 mph 23.0 mph N/A Snow Light Snow
4:06 AM 19.4 °F 5.5 °F 17.6 °F 93% 30.04 in 4.0 mi NNW 15.0 mph 26.5 mph N/A Snow Light Snow
4:26 AM 17.6 °F 5.0 °F 15.8 °F 93% 30.06 in 5.0 mi North 11.5 mph 26.5 mph N/A Snow Light Snow
4:46 AM 17.6 °F 5.7 °F 15.8 °F 93% 30.07 in 7.0 mi NNW 10.4 mph 20.7 mph N/A Snow Light Snow
5:06 AM 17.6 °F 2.2 °F 15.8 °F 93% 30.08 in 7.0 mi NNW 17.3 mph 24.2 mph N/A Snow Light Snow
5:26 AM 17.6 °F 2.7 °F 15.8 °F 93% 30.10 in 7.0 mi NNW 16.1 mph 21.9 mph N/A Snow Light Snow
5:46 AM 17.6 °F 4.3 °F 15.8 °F 93% 30.11 in 7.0 mi NNW 12.7 mph 21.9 mph N/A Snow Light Snow
6:06 AM 17.6 °F 3.2 °F 15.8 °F 93% 30.12 in 5.0 mi NNW 15.0 mph 19.6 mph N/A Snow Light Snow
6:26 AM 17.6 °F 5.7 °F 15.8 °F 93% 30.13 in 10.0 mi NNW 10.4 mph 19.6 mph N/A Snow Light Snow
6:46 AM 17.6 °F 3.2 °F 15.8 °F 93% 30.14 in 7.0 mi NNW 15.0 mph 21.9 mph N/A Snow Light Snow
7:06 AM 17.6 °F 3.7 °F 15.8 °F 93% 30.15 in 10.0 mi NNW 13.8 mph 20.7 mph N/A Snow Light Snow
7:26 AM 17.6 °F 7.3 °F 15.8 °F 93% 30.16 in 7.0 mi NNW 8.1 mph 16.1 mph N/A Snow Light Snow
7:46 AM 17.6 °F 5.7 °F 15.8 °F 93% 30.17 in 10.0 mi NW 10.4 mph 18.4 mph N/A Snow Light Snow
8:06 AM 17.6 °F 3.7 °F 15.8 °F 93% 30.18 in 10.0 mi NW 13.8 mph 20.7 mph N/A Snow Light Snow
8:26 AM 17.6 °F 6.4 °F 15.8 °F 93% 30.18 in 10.0 mi NNW 9.2 mph 23.0 mph N/A   Overcast
8:46 AM 17.6 °F 5.0 °F 15.8 °F 93% 30.19 in 10.0 mi NNW 11.5 mph 21.9 mph N/A Snow Light Snow
9:06 AM 17.6 °F 3.2 °F 15.8 °F 93% 30.20 in 7.0 mi NNW 15.0 mph 23.0 mph N/A Snow Light Snow
9:26 AM 19.4 °F 6.0 °F 15.8 °F 86% 30.21 in 10.0 mi NNW 13.8 mph 23.0 mph N/A Snow Light Snow
9:46 AM 19.4 °F 6.0 °F 15.8 °F 86% 30.22 in 10.0 mi NNW 13.8 mph 20.7 mph N/A Snow Light Snow
10:06 AM 19.4 °F 7.2 °F 15.8 °F 86% 30.23 in 10.0 mi NNW 11.5 mph 24.2 mph N/A Snow Light Snow
10:26 AM 17.6 °F 5.0 °F 15.8 °F 93% 30.23 in 3.0 mi North 11.5 mph 20.7 mph N/A Snow Light Snow
10:46 AM 17.6 °F 6.4 °F 15.8 °F 93% 30.24 in 2.0 mi North 9.2 mph 19.6 mph N/A Snow Light Snow
11:06 AM 17.6 °F 5.0 °F 14.0 °F 86% 30.25 in 4.0 mi North 11.5 mph 19.6 mph N/A Snow Light Snow
11:26 AM 17.6 °F 6.4 °F 14.0 °F 86% 30.25 in 5.0 mi NNW 9.2 mph 18.4 mph N/A Snow Light Snow
11:45 AM 17.6 °F 5.7 °F 15.8 °F 93% 30.25 in 5.0 mi NNW 10.4 mph 18.4 mph N/A Snow Light Snow
12:06 PM 17.6 °F 6.4 °F 15.8 °F 93% 30.26 in 3.0 mi NNW 9.2 mph 20.7 mph N/A Snow Light Snow
12:26 PM 17.6 °F 5.0 °F 14.0 °F 86% 30.25 in 10.0 mi NNW 11.5 mph 19.6 mph N/A Snow Light Snow
12:46 PM 17.6 °F 5.0 °F 14.0 °F 86% 30.26 in 7.0 mi NW 11.5 mph 19.6 mph N/A Snow Light Snow
1:06 PM 17.6 °F 8.2 °F 14.0 °F 86% 30.26 in 2.0 mi NNW 6.9 mph 17.3 mph N/A Snow Light Snow
1:26 PM 17.6 °F 7.3 °F 15.8 °F 93% 30.26 in 1.5 mi NNW 8.1 mph - N/A Snow Light Snow
1:46 PM 17.6 °F 6.4 °F 14.0 °F 86% 30.27 in 1.2 mi NW 9.2 mph - N/A Snow Light Snow
2:06 PM 17.6 °F 5.0 °F 15.8 °F 93% 30.27 in 2.5 mi NW 11.5 mph 18.4 mph N/A Snow Light Snow
2:26 PM 17.6 °F 6.4 °F 15.8 °F 93% 30.27 in 2.5 mi NW 9.2 mph 17.3 mph N/A Snow Light Snow
2:46 PM 17.6 °F 10.7 °F 14.0 °F 86% 30.27 in 4.0 mi NW 4.6 mph - N/A Snow Light Snow
3:06 PM 17.6 °F 6.4 °F 14.0 °F 86% 30.28 in 2.5 mi NW 9.2 mph - N/A Snow Light Snow
3:26 PM 17.6 °F 10.7 °F 14.0 °F 86% 30.28 in 5.0 mi NW 4.6 mph - N/A Snow Light Snow
3:46 PM 17.6 °F 10.7 °F 14.0 °F 86% 30.29 in 3.0 mi NW 4.6 mph - N/A Snow Light Snow
4:05 PM 17.6 °F 6.4 °F 14.0 °F 86% 30.29 in 3.0 mi NW 9.2 mph - N/A Snow Light Snow
4:26 PM 15.8 °F 8.6 °F 14.0 °F 93% 30.30 in 1.5 mi NW 4.6 mph - N/A Snow Light Snow
4:46 PM 15.8 °F 2.7 °F 14.0 °F 93% 30.30 in 5.0 mi NW 11.5 mph 17.3 mph N/A Snow Light Snow
5:06 PM 15.8 °F 2.7 °F 12.2 °F 86% 30.31 in 10.0 mi NNW 11.5 mph 17.3 mph N/A Snow Light Snow
5:26 PM 15.8 °F 3.4 °F 12.2 °F 86% 30.31 in 10.0 mi NNW 10.4 mph - N/A Snow Light Snow
5:47 PM 15.8 °F 6.1 °F 12.2 °F 86% 30.31 in 7.0 mi NNW 6.9 mph - N/A Snow Light Snow
6:25 PM 15.8 °F 6.1 °F 12.2 °F 86% 30.32 in 10.0 mi NNW 6.9 mph - N/A   Overcast
6:46 PM 15.8 °F 5.1 °F 12.2 °F 86% 30.32 in 10.0 mi NNW 8.1 mph - N/A   Overcast
7:06 PM 15.8 °F 6.1 °F 10.4 °F 79% 30.32 in 10.0 mi North 6.9 mph - N/A   Overcast
7:26 PM 15.8 °F 7.2 °F 10.4 °F 79% 30.31 in 10.0 mi North 5.8 mph - N/A   Overcast
7:46 PM 14.0 °F 2.9 °F 10.4 °F 86% 30.31 in 10.0 mi North 8.1 mph - N/A   Overcast
8:05 PM 12.2 °F 2.9 °F 8.6 °F 85% 30.31 in 10.0 mi NNW 5.8 mph - N/A   Scattered Clouds
8:25 PM 12.2 °F 2.9 °F 8.6 °F 85% 30.30 in 10.0 mi North 5.8 mph - N/A   Mostly Cloudy
8:45 PM 12.2 °F 0.7 °F 10.4 °F 92% 30.30 in 10.0 mi NNW 8.1 mph - N/A   Overcast
9:05 PM 12.2 °F 1.7 °F 8.6 °F 85% 30.30 in 10.0 mi NNW 6.9 mph - N/A   Mostly Cloudy
9:26 PM 12.2 °F 1.7 °F 8.6 °F 85% 30.30 in 10.0 mi NW 6.9 mph - N/A   Mostly Cloudy
9:46 PM 12.2 °F 6.1 °F 8.6 °F 85% 30.31 in 10.0 mi NNW 3.5 mph - N/A   Scattered Clouds
10:06 PM 10.4 °F - 6.8 °F 85% 30.31 in 10.0 mi Calm Calm - N/A   Scattered Clouds
10:25 PM 10.4 °F - 6.8 °F 85% 30.31 in 10.0 mi Calm Calm - N/A   Mostly Cloudy
10:46 PM 10.4 °F 4.0 °F 6.8 °F 85% 30.31 in 10.0 mi NNW 3.5 mph - N/A Snow Light Snow
11:06 PM 10.4 °F 2.2 °F 6.8 °F 85% 30.31 in 10.0 mi NNW 4.6 mph - N/A   Overcast
11:25 PM 10.4 °F - 6.8 °F 85% 30.31 in 10.0 mi Calm Calm - N/A Snow Light Snow
11:45 PM 10.4 °F - 6.8 °F 85% 30.31 in 7.0 mi Calm Calm - N/A Snow Light Snow